createdAt,value
2022-12-11T00:00:51.591Z,-4.90
2022-12-11T00:05:53.278Z,-4.90
2022-12-11T00:10:55.130Z,-4.90
2022-12-11T00:15:59.006Z,-4.90
2022-12-11T00:21:05.027Z,-4.90
2022-12-11T00:26:09.416Z,-4.90
2022-12-11T00:31:17.677Z,-4.90
2022-12-11T00:36:23.202Z,-4.80
2022-12-11T00:41:25.380Z,-4.90
2022-12-11T00:46:27.226Z,-4.90
2022-12-11T00:51:29.406Z,-4.80
2022-12-11T00:56:31.206Z,-4.80
2022-12-11T01:01:33.471Z,-4.80
2022-12-11T01:06:35.250Z,-4.80
2022-12-11T01:11:37.377Z,-4.80
2022-12-11T01:16:39.456Z,-4.90
2022-12-11T01:21:41.246Z,-5.00
2022-12-11T01:26:42.967Z,-5.00
2022-12-11T01:31:44.722Z,-5.00
2022-12-11T01:36:46.426Z,-5.00
2022-12-11T01:41:48.298Z,-5.10
2022-12-11T01:46:50.405Z,-5.10
2022-12-11T01:52:22.035Z,-5.10
2022-12-11T01:57:23.834Z,-5.20
2022-12-11T02:02:29.741Z,-5.20
2022-12-11T02:07:40.026Z,-5.20
2022-12-11T02:12:57.586Z,-5.20
2022-12-11T02:18:20.286Z,-5.20
2022-12-11T02:23:51.496Z,-5.30
2022-12-11T02:29:05.679Z,-5.30
2022-12-11T02:34:28.761Z,-5.30
2022-12-11T02:39:33.594Z,-5.30
2022-12-11T02:44:37.050Z,-5.40
2022-12-11T02:49:42.634Z,-5.40
2022-12-11T02:54:45.802Z,-5.40
2022-12-11T02:59:47.666Z,-5.30
2022-12-11T03:04:49.451Z,-5.40
2022-12-11T03:09:51.894Z,-5.50
2022-12-11T03:14:53.988Z,-5.40
2022-12-11T03:20:19.870Z,-5.40
2022-12-11T03:25:44.439Z,-5.50
2022-12-11T03:30:49.765Z,-5.50
2022-12-11T03:36:01.047Z,-5.50
2022-12-11T03:41:05.520Z,-5.50
2022-12-11T03:46:09.245Z,-5.50
2022-12-11T03:51:11.102Z,-5.60
2022-12-11T03:56:15.638Z,-5.60
2022-12-11T04:01:17.443Z,-5.60
2022-12-11T04:06:19.358Z,-5.60
2022-12-11T04:11:36.480Z,-5.60
2022-12-11T04:16:38.607Z,-5.60
2022-12-11T04:21:58.936Z,-5.60
2022-12-11T04:27:00.701Z,-5.60
2022-12-11T04:32:02.499Z,-5.60
2022-12-11T04:37:04.228Z,-5.60
2022-12-11T04:42:06.009Z,-5.60
2022-12-11T04:47:07.786Z,-5.70
2022-12-11T04:52:09.809Z,-5.60
2022-12-11T04:57:11.526Z,-5.70
2022-12-11T05:02:13.339Z,-5.70
2022-12-11T05:07:15.093Z,-5.70
2022-12-11T05:12:16.826Z,-5.70
2022-12-11T05:17:18.648Z,-5.60
2022-12-11T05:22:20.388Z,-5.60
2022-12-11T05:27:22.072Z,-5.60
2022-12-11T05:32:23.778Z,-5.50
2022-12-11T05:37:25.453Z,-5.50
2022-12-11T05:42:28.948Z,-5.50
2022-12-11T05:47:31.660Z,-5.60
2022-12-11T05:52:33.610Z,-5.60
2022-12-11T05:57:35.322Z,-5.60
2022-12-11T06:02:37.364Z,-5.60
2022-12-11T06:07:39.162Z,-5.50
2022-12-11T06:12:41.307Z,-5.50
2022-12-11T06:17:42.994Z,-5.60
2022-12-11T06:22:44.729Z,-5.60
2022-12-11T06:27:46.434Z,-5.50
2022-12-11T06:32:48.152Z,-5.50
2022-12-11T06:37:49.943Z,-5.50
2022-12-11T06:42:51.644Z,-5.50
2022-12-11T06:47:53.303Z,-5.60
2022-12-11T06:52:56.713Z,-5.60
2022-12-11T06:57:58.390Z,-5.70
2022-12-11T07:03:00.118Z,-5.80
2022-12-11T07:08:01.951Z,-5.80
2022-12-11T07:13:03.779Z,-5.90
2022-12-11T07:18:05.531Z,-5.90
2022-12-11T07:23:07.242Z,-5.90
2022-12-11T07:28:10.130Z,-6.00
2022-12-11T07:33:15.979Z,-6.00
2022-12-11T07:38:17.679Z,-6.00
2022-12-11T07:43:19.362Z,-6.00
2022-12-11T07:48:21.091Z,-6.10
2022-12-11T07:53:22.819Z,-6.10
2022-12-11T07:58:24.523Z,-6.00
2022-12-11T08:03:26.327Z,-6.00
2022-12-11T08:08:28.133Z,-6.00
2022-12-11T08:13:30.008Z,-6.00
2022-12-11T08:18:32.858Z,-5.90
2022-12-11T08:23:34.847Z,-5.90
2022-12-11T08:28:36.802Z,-5.80
2022-12-11T08:33:39.518Z,-5.80
2022-12-11T08:38:41.850Z,-5.70
2022-12-11T08:43:44.024Z,-5.60
2022-12-11T08:48:45.781Z,-5.50
2022-12-11T08:53:47.557Z,-5.50
2022-12-11T08:58:50.066Z,-5.40
2022-12-11T09:03:53.405Z,-5.30
2022-12-11T09:08:56.214Z,-5.40
2022-12-11T09:14:02.127Z,-5.30
2022-12-11T09:19:09.461Z,-5.30
2022-12-11T09:24:12.570Z,-5.10
2022-12-11T09:29:15.398Z,-5.10
2022-12-11T09:34:17.246Z,-5.10
2022-12-11T09:39:19.154Z,-5.10
2022-12-11T09:44:35.876Z,-5.00
2022-12-11T09:49:44.633Z,-5.00
2022-12-11T09:55:01.470Z,-4.90
2022-12-11T10:00:08.261Z,-4.90
2022-12-11T10:05:37.597Z,-4.70
2022-12-11T10:10:57.475Z,-4.50
2022-12-11T10:16:14.352Z,-4.50
2022-12-11T10:21:18.305Z,-4.50
2022-12-11T10:26:23.141Z,-4.40
2022-12-11T10:31:55.731Z,-4.50
2022-12-11T10:37:00.589Z,-4.50
2022-12-11T10:42:16.005Z,-4.40
2022-12-11T10:47:18.918Z,-4.30
2022-12-11T10:52:24.262Z,-4.20
2022-12-11T10:57:32.278Z,-4.40
2022-12-11T11:02:40.444Z,-4.30
2022-12-11T11:07:42.730Z,-4.20
2022-12-11T11:12:47.103Z,-4.30
2022-12-11T11:17:55.839Z,-4.30
2022-12-11T11:23:01.913Z,-4.40
2022-12-11T11:28:06.838Z,-4.50
2022-12-11T11:33:20.001Z,-4.40
2022-12-11T11:38:30.954Z,-4.50
2022-12-11T11:43:44.778Z,-4.50
2022-12-11T11:48:52.166Z,-4.40
2022-12-11T11:53:58.322Z,-4.40
2022-12-11T11:59:11.660Z,-4.40
2022-12-11T12:04:14.548Z,-4.50
2022-12-11T12:09:34.978Z,-4.50
2022-12-11T12:14:53.048Z,-4.50
2022-12-11T12:19:54.665Z,-4.40
2022-12-11T12:25:10.420Z,-4.40
2022-12-11T12:30:22.085Z,-4.40
2022-12-11T12:35:35.373Z,-4.50
2022-12-11T12:41:00.295Z,-4.40
2022-12-11T12:46:20.551Z,-4.40
2022-12-11T12:51:22.950Z,-4.30
2022-12-11T12:56:25.927Z,-4.30
2022-12-11T13:01:29.791Z,-4.40
2022-12-11T13:06:44.005Z,-4.40
2022-12-11T13:11:50.107Z,-4.40
2022-12-11T13:16:53.369Z,-4.40
2022-12-11T13:22:21.997Z,-4.40
2022-12-11T13:27:39.820Z,-4.40
2022-12-11T13:32:43.604Z,-4.40
2022-12-11T13:37:46.717Z,-4.40
2022-12-11T13:42:52.859Z,-4.40
2022-12-11T13:47:58.681Z,-4.40
2022-12-11T13:53:02.162Z,-4.40
2022-12-11T13:58:03.900Z,-4.40
2022-12-11T14:03:09.343Z,-4.50
2022-12-11T14:08:12.482Z,-4.50
2022-12-11T14:13:27.351Z,-4.50
2022-12-11T14:18:32.558Z,-4.40
2022-12-11T14:23:36.246Z,-4.50
2022-12-11T14:28:41.494Z,-4.50
2022-12-11T14:33:51.941Z,-4.40
2022-12-11T14:38:59.428Z,-4.40
2022-12-11T14:44:05.234Z,-4.40
2022-12-11T14:49:24.791Z,-4.30
2022-12-11T14:54:43.943Z,-4.40
2022-12-11T14:59:48.295Z,-4.40
2022-12-11T15:05:13.650Z,-4.30
2022-12-11T15:10:27.140Z,-4.30
2022-12-11T15:15:31.990Z,-4.30
2022-12-11T15:20:33.835Z,-4.20
2022-12-11T15:25:35.599Z,-4.20
2022-12-11T15:30:37.410Z,-4.20
2022-12-11T15:35:40.342Z,-4.10
2022-12-11T15:40:42.046Z,-4.20
2022-12-11T15:45:43.800Z,-4.10
2022-12-11T15:50:45.618Z,-4.10
2022-12-11T15:55:47.483Z,-4.10
2022-12-11T16:00:49.226Z,-4.10
2022-12-11T16:05:52.584Z,-4.10
2022-12-11T16:10:55.653Z,-4.10
2022-12-11T16:15:58.436Z,-4.00
2022-12-11T16:21:05.398Z,-4.00
2022-12-11T16:26:09.590Z,-4.10
2022-12-11T16:31:12.741Z,-4.00
2022-12-11T16:36:17.441Z,-4.00
2022-12-11T16:41:19.244Z,-4.00
2022-12-11T16:46:22.456Z,-4.10
2022-12-11T16:51:24.333Z,-4.10
2022-12-11T16:56:26.651Z,-4.10
2022-12-11T17:01:29.015Z,-4.10
2022-12-11T17:06:30.997Z,-4.10
2022-12-11T17:11:32.774Z,-4.20
2022-12-11T17:16:34.794Z,-4.10
2022-12-11T17:21:36.464Z,-4.20
2022-12-11T17:26:38.411Z,-4.20
2022-12-11T17:31:40.524Z,-4.30
2022-12-11T17:36:42.261Z,-4.40
2022-12-11T17:41:44.227Z,-4.50
2022-12-11T17:46:45.998Z,-4.50
2022-12-11T17:51:48.085Z,-4.50
2022-12-11T17:56:50.413Z,-4.60
2022-12-11T18:01:52.228Z,-4.60
2022-12-11T18:06:54.094Z,-4.60
2022-12-11T18:11:55.850Z,-4.60
2022-12-11T18:16:57.553Z,-4.60
2022-12-11T18:21:59.285Z,-4.60
2022-12-11T18:27:01.045Z,-4.70
2022-12-11T18:32:02.926Z,-4.70
2022-12-11T18:37:04.763Z,-4.70
2022-12-11T18:42:32.448Z,-4.70
2022-12-11T18:47:29.004Z,-4.70
2022-12-11T18:52:30.743Z,-4.70
2022-12-11T18:57:32.656Z,-4.70
2022-12-11T19:02:35.307Z,-4.70
2022-12-11T19:07:37.018Z,-4.70
2022-12-11T19:12:38.853Z,-4.70
2022-12-11T19:17:42.863Z,-4.70
2022-12-11T19:22:44.762Z,-4.70
2022-12-11T19:27:47.450Z,-4.70
2022-12-11T19:32:49.582Z,-4.70
2022-12-11T19:37:51.563Z,-4.70
2022-12-11T19:42:53.344Z,-4.70
2022-12-11T19:47:55.034Z,-4.60
2022-12-11T19:52:56.726Z,-4.60
2022-12-11T19:57:58.688Z,-4.60
2022-12-11T20:03:00.451Z,-4.50
2022-12-11T20:08:27.407Z,-4.50
2022-12-11T20:13:24.030Z,-4.60
2022-12-11T20:18:25.974Z,-4.50
2022-12-11T20:23:28.073Z,-4.50
2022-12-11T20:28:29.776Z,-4.50
2022-12-11T20:33:31.608Z,-4.50
2022-12-11T20:38:34.616Z,-4.50
2022-12-11T20:43:37.929Z,-4.50
2022-12-11T20:48:40.835Z,-4.50
2022-12-11T20:53:42.880Z,-4.40
2022-12-11T20:58:45.623Z,-4.40
2022-12-11T21:03:47.904Z,-4.40
2022-12-11T21:08:49.736Z,-4.40
2022-12-11T21:13:52.573Z,-4.40
2022-12-11T21:18:56.098Z,-4.30
2022-12-11T21:23:57.770Z,-4.30
2022-12-11T21:28:59.568Z,-4.30
2022-12-11T21:34:01.440Z,-4.30
2022-12-11T21:39:04.506Z,-4.30
2022-12-11T21:49:28.102Z,-4.20
2022-12-11T21:54:29.880Z,-4.20
2022-12-11T21:59:31.769Z,-4.10
2022-12-11T22:04:33.527Z,-4.10
2022-12-11T22:09:35.222Z,-4.10
2022-12-11T22:14:37.039Z,-4.10
2022-12-11T22:19:38.739Z,-4.10
2022-12-11T22:24:40.654Z,-4.00
2022-12-11T22:29:42.461Z,-4.10
2022-12-11T22:34:44.197Z,-4.00
2022-12-11T22:39:45.951Z,-4.00
2022-12-11T22:44:47.734Z,-4.00
2022-12-11T22:49:49.857Z,-3.90
2022-12-11T22:54:51.636Z,-3.90
2022-12-11T22:59:53.420Z,-3.90
2022-12-11T23:04:55.119Z,-3.90
2022-12-11T23:09:56.882Z,-3.90
2022-12-11T23:14:59.285Z,-3.90
2022-12-11T23:20:03.639Z,-3.90
2022-12-11T23:25:06.057Z,-3.90
2022-12-11T23:30:08.401Z,-3.80
2022-12-11T23:35:10.585Z,-3.80
2022-12-11T23:40:14.531Z,-3.70
2022-12-11T23:45:16.322Z,-3.70
2022-12-11T23:50:18.453Z,-3.70
2022-12-11T23:55:20.799Z,-3.60
